sensor_id;sensor_type;location;lat;lon;timestamp;temperature;humidity
36458;DHT22;22480;50.546;12.292;2022-12-24T00:01:08;8.90;99.90
36458;DHT22;22480;50.546;12.292;2022-12-24T00:03:35;8.90;99.90
36458;DHT22;22480;50.546;12.292;2022-12-24T00:06:06;8.90;99.90
36458;DHT22;22480;50.546;12.292;2022-12-24T00:08:32;8.90;99.90
36458;DHT22;22480;50.546;12.292;2022-12-24T00:10:58;9.00;99.90
36458;DHT22;22480;50.546;12.292;2022-12-24T00:13:24;9.00;99.90
36458;DHT22;22480;50.546;12.292;2022-12-24T00:15:49;9.00;99.90
36458;DHT22;22480;50.546;12.292;2022-12-24T00:18:15;9.00;99.90
36458;DHT22;22480;50.546;12.292;2022-12-24T00:20:47;8.90;99.90
36458;DHT22;22480;50.546;12.292;2022-12-24T00:23:13;9.00;99.90
36458;DHT22;22480;50.546;12.292;2022-12-24T00:25:39;8.90;99.90
36458;DHT22;22480;50.546;12.292;2022-12-24T00:28:05;8.90;99.90
36458;DHT22;22480;50.546;12.292;2022-12-24T00:30:31;8.90;99.90
36458;DHT22;22480;50.546;12.292;2022-12-24T00:32:56;9.00;99.90
36458;DHT22;22480;50.546;12.292;2022-12-24T00:35:22;9.00;99.90
36458;DHT22;22480;50.546;12.292;2022-12-24T00:37:49;8.90;99.90
36458;DHT22;22480;50.546;12.292;2022-12-24T00:40:15;8.90;99.90
36458;DHT22;22480;50.546;12.292;2022-12-24T00:42:42;8.90;99.90
36458;DHT22;22480;50.546;12.292;2022-12-24T00:45:08;8.80;99.90
36458;DHT22;22480;50.546;12.292;2022-12-24T00:47:34;8.90;99.90
36458;DHT22;22480;50.546;12.292;2022-12-24T00:50:00;9.00;99.90
36458;DHT22;22480;50.546;12.292;2022-12-24T00:52:26;8.90;99.90
36458;DHT22;22480;50.546;12.292;2022-12-24T00:54:52;8.90;99.90
36458;DHT22;22480;50.546;12.292;2022-12-24T00:57:18;8.80;99.90
36458;DHT22;22480;50.546;12.292;2022-12-24T00:59:44;8.80;99.90
36458;DHT22;22480;50.546;12.292;2022-12-24T01:02:09;8.90;99.90
36458;DHT22;22480;50.546;12.292;2022-12-24T01:04:35;8.90;99.90
36458;DHT22;22480;50.546;12.292;2022-12-24T01:07:20;8.80;99.90
36458;DHT22;22480;50.546;12.292;2022-12-24T01:09:45;8.70;99.90
36458;DHT22;22480;50.546;12.292;2022-12-24T01:12:11;8.80;99.90
36458;DHT22;22480;50.546;12.292;2022-12-24T01:14:37;8.80;99.90
36458;DHT22;22480;50.546;12.292;2022-12-24T01:17:03;8.70;99.90
36458;DHT22;22480;50.546;12.292;2022-12-24T01:19:28;8.70;99.90
36458;DHT22;22480;50.546;12.292;2022-12-24T01:21:54;8.70;99.90
36458;DHT22;22480;50.546;12.292;2022-12-24T01:24:20;8.70;99.90
36458;DHT22;22480;50.546;12.292;2022-12-24T01:26:46;8.70;99.90
36458;DHT22;22480;50.546;12.292;2022-12-24T01:29:12;8.70;99.90
36458;DHT22;22480;50.546;12.292;2022-12-24T01:31:37;8.60;99.90
36458;DHT22;22480;50.546;12.292;2022-12-24T01:34:03;8.50;99.90
36458;DHT22;22480;50.546;12.292;2022-12-24T01:36:29;8.40;99.90
36458;DHT22;22480;50.546;12.292;2022-12-24T01:38:55;8.30;99.90
36458;DHT22;22480;50.546;12.292;2022-12-24T01:41:22;8.20;99.90
36458;DHT22;22480;50.546;12.292;2022-12-24T01:44:30;8.20;99.90
36458;DHT22;22480;50.546;12.292;2022-12-24T01:49:34;8.10;99.90
36458;DHT22;22480;50.546;12.292;2022-12-24T01:52:15;8.10;99.90
36458;DHT22;22480;50.546;12.292;2022-12-24T01:54:51;8.10;99.90
36458;DHT22;22480;50.546;12.292;2022-12-24T01:57:29;8.10;99.90
36458;DHT22;22480;50.546;12.292;2022-12-24T01:59:59;8.10;99.90
36458;DHT22;22480;50.546;12.292;2022-12-24T02:02:26;8.10;99.90
36458;DHT22;22480;50.546;12.292;2022-12-24T02:05:33;8.10;99.90
36458;DHT22;22480;50.546;12.292;2022-12-24T02:08:02;8.20;99.90
36458;DHT22;22480;50.546;12.292;2022-12-24T02:10:28;8.20;99.90
36458;DHT22;22480;50.546;12.292;2022-12-24T02:12:54;8.20;99.90
36458;DHT22;22480;50.546;12.292;2022-12-24T02:15:21;8.30;99.90
36458;DHT22;22480;50.546;12.292;2022-12-24T02:17:54;8.30;99.90
36458;DHT22;22480;50.546;12.292;2022-12-24T02:31:36;8.30;99.90
36458;DHT22;22480;50.546;12.292;2022-12-24T02:36:45;8.30;99.90
36458;DHT22;22480;50.546;12.292;2022-12-24T02:39:28;8.30;99.90
36458;DHT22;22480;50.546;12.292;2022-12-24T02:41:59;8.30;99.90
36458;DHT22;22480;50.546;12.292;2022-12-24T02:44:40;8.20;99.90
36458;DHT22;22480;50.546;12.292;2022-12-24T02:47:09;8.00;99.90
36458;DHT22;22480;50.546;12.292;2022-12-24T02:49:36;7.90;99.90
36458;DHT22;22480;50.546;12.292;2022-12-24T02:52:02;7.80;99.90
36458;DHT22;22480;50.546;12.292;2022-12-24T02:54:28;7.80;99.90
36458;DHT22;22480;50.546;12.292;2022-12-24T02:57:05;7.80;99.90
36458;DHT22;22480;50.546;12.292;2022-12-24T03:02:51;7.80;99.90
36458;DHT22;22480;50.546;12.292;2022-12-24T03:05:27;7.90;99.90
36458;DHT22;22480;50.546;12.292;2022-12-24T03:08:09;7.90;99.90
36458;DHT22;22480;50.546;12.292;2022-12-24T03:10:56;8.10;99.90
36458;DHT22;22480;50.546;12.292;2022-12-24T03:13:26;8.10;99.90
36458;DHT22;22480;50.546;12.292;2022-12-24T03:15:52;8.20;99.90
36458;DHT22;22480;50.546;12.292;2022-12-24T03:18:21;8.20;99.90
36458;DHT22;22480;50.546;12.292;2022-12-24T03:20:59;8.20;99.90
36458;DHT22;22480;50.546;12.292;2022-12-24T03:23:26;8.20;99.90
36458;DHT22;22480;50.546;12.292;2022-12-24T03:25:52;8.20;99.90
36458;DHT22;22480;50.546;12.292;2022-12-24T03:28:19;8.30;99.90
36458;DHT22;22480;50.546;12.292;2022-12-24T03:30:49;8.30;99.90
36458;DHT22;22480;50.546;12.292;2022-12-24T03:33:15;8.20;99.90
36458;DHT22;22480;50.546;12.292;2022-12-24T03:35:41;8.30;99.90
36458;DHT22;22480;50.546;12.292;2022-12-24T03:38:07;8.20;99.90
36458;DHT22;22480;50.546;12.292;2022-12-24T03:40:32;8.30;99.90
36458;DHT22;22480;50.546;12.292;2022-12-24T03:42:58;8.20;99.90
36458;DHT22;22480;50.546;12.292;2022-12-24T03:45:24;8.20;99.90
36458;DHT22;22480;50.546;12.292;2022-12-24T03:47:49;8.20;99.90
36458;DHT22;22480;50.546;12.292;2022-12-24T03:50:15;8.20;99.90
36458;DHT22;22480;50.546;12.292;2022-12-24T03:52:41;8.20;99.90
36458;DHT22;22480;50.546;12.292;2022-12-24T03:55:07;8.20;99.90
36458;DHT22;22480;50.546;12.292;2022-12-24T03:57:33;8.20;99.90
36458;DHT22;22480;50.546;12.292;2022-12-24T03:59:58;8.20;99.90
36458;DHT22;22480;50.546;12.292;2022-12-24T04:02:24;8.00;99.90
36458;DHT22;22480;50.546;12.292;2022-12-24T04:04:50;7.90;99.90
36458;DHT22;22480;50.546;12.292;2022-12-24T04:07:15;7.80;99.90
36458;DHT22;22480;50.546;12.292;2022-12-24T04:09:41;7.70;99.90
36458;DHT22;22480;50.546;12.292;2022-12-24T04:12:07;7.60;99.90
36458;DHT22;22480;50.546;12.292;2022-12-24T04:14:33;7.60;99.90
36458;DHT22;22480;50.546;12.292;2022-12-24T04:16:59;7.40;99.90
36458;DHT22;22480;50.546;12.292;2022-12-24T04:19:24;7.40;99.90
36458;DHT22;22480;50.546;12.292;2022-12-24T04:21:50;7.30;99.90
36458;DHT22;22480;50.546;12.292;2022-12-24T04:24:16;7.30;99.90
36458;DHT22;22480;50.546;12.292;2022-12-24T04:26:41;7.30;99.90
36458;DHT22;22480;50.546;12.292;2022-12-24T04:29:07;7.30;99.90
36458;DHT22;22480;50.546;12.292;2022-12-24T04:31:33;7.30;99.90
36458;DHT22;22480;50.546;12.292;2022-12-24T04:33:58;7.40;99.90
36458;DHT22;22480;50.546;12.292;2022-12-24T04:36:24;7.40;99.90
36458;DHT22;22480;50.546;12.292;2022-12-24T04:38:50;7.40;99.90
36458;DHT22;22480;50.546;12.292;2022-12-24T04:41:18;7.50;99.90
36458;DHT22;22480;50.546;12.292;2022-12-24T04:43:44;7.50;99.90
36458;DHT22;22480;50.546;12.292;2022-12-24T04:46:16;7.50;99.90
36458;DHT22;22480;50.546;12.292;2022-12-24T04:48:48;7.50;99.90
36458;DHT22;22480;50.546;12.292;2022-12-24T04:51:15;7.50;99.90
36458;DHT22;22480;50.546;12.292;2022-12-24T04:53:43;7.50;99.90
36458;DHT22;22480;50.546;12.292;2022-12-24T04:56:18;7.40;99.90
36458;DHT22;22480;50.546;12.292;2022-12-24T04:58:44;7.40;99.90
36458;DHT22;22480;50.546;12.292;2022-12-24T05:01:16;7.40;99.90
36458;DHT22;22480;50.546;12.292;2022-12-24T05:03:42;7.30;99.90
36458;DHT22;22480;50.546;12.292;2022-12-24T05:06:12;7.20;99.90
36458;DHT22;22480;50.546;12.292;2022-12-24T05:08:38;7.00;99.90
36458;DHT22;22480;50.546;12.292;2022-12-24T05:11:04;6.90;99.90
36458;DHT22;22480;50.546;12.292;2022-12-24T05:13:30;6.80;99.90
36458;DHT22;22480;50.546;12.292;2022-12-24T05:15:56;6.80;99.90
36458;DHT22;22480;50.546;12.292;2022-12-24T05:18:22;6.80;99.90
36458;DHT22;22480;50.546;12.292;2022-12-24T05:20:48;6.80;99.90
36458;DHT22;22480;50.546;12.292;2022-12-24T05:23:16;6.80;99.90
36458;DHT22;22480;50.546;12.292;2022-12-24T05:26:00;6.80;99.90
36458;DHT22;22480;50.546;12.292;2022-12-24T05:28:45;6.80;99.90
36458;DHT22;22480;50.546;12.292;2022-12-24T05:31:11;6.90;99.90
36458;DHT22;22480;50.546;12.292;2022-12-24T05:33:36;7.00;99.90
36458;DHT22;22480;50.546;12.292;2022-12-24T05:36:02;7.10;99.90
36458;DHT22;22480;50.546;12.292;2022-12-24T05:38:28;7.20;99.90
36458;DHT22;22480;50.546;12.292;2022-12-24T05:40:53;7.20;99.90
36458;DHT22;22480;50.546;12.292;2022-12-24T05:43:19;7.40;99.90
36458;DHT22;22480;50.546;12.292;2022-12-24T05:45:45;7.40;99.90
36458;DHT22;22480;50.546;12.292;2022-12-24T05:48:10;7.40;99.90
36458;DHT22;22480;50.546;12.292;2022-12-24T05:50:38;7.50;99.90
36458;DHT22;22480;50.546;12.292;2022-12-24T05:53:04;7.40;99.90
36458;DHT22;22480;50.546;12.292;2022-12-24T05:55:30;7.50;99.90
36458;DHT22;22480;50.546;12.292;2022-12-24T05:57:56;7.50;99.90
36458;DHT22;22480;50.546;12.292;2022-12-24T06:00:21;7.60;99.90
36458;DHT22;22480;50.546;12.292;2022-12-24T06:02:47;7.60;99.90
36458;DHT22;22480;50.546;12.292;2022-12-24T06:05:13;7.60;99.90
36458;DHT22;22480;50.546;12.292;2022-12-24T06:07:39;7.60;99.90
36458;DHT22;22480;50.546;12.292;2022-12-24T06:10:06;7.50;99.90
36458;DHT22;22480;50.546;12.292;2022-12-24T06:12:31;7.40;99.90
36458;DHT22;22480;50.546;12.292;2022-12-24T06:14:57;7.30;99.90
36458;DHT22;22480;50.546;12.292;2022-12-24T06:17:23;7.30;99.90
36458;DHT22;22480;50.546;12.292;2022-12-24T06:19:48;7.30;99.90
36458;DHT22;22480;50.546;12.292;2022-12-24T06:22:14;7.20;99.90
36458;DHT22;22480;50.546;12.292;2022-12-24T06:24:40;7.20;99.90
36458;DHT22;22480;50.546;12.292;2022-12-24T06:27:05;7.20;99.90
36458;DHT22;22480;50.546;12.292;2022-12-24T06:29:31;7.20;99.90
36458;DHT22;22480;50.546;12.292;2022-12-24T06:31:57;7.20;99.90
36458;DHT22;22480;50.546;12.292;2022-12-24T06:34:22;7.30;99.90
36458;DHT22;22480;50.546;12.292;2022-12-24T06:36:48;7.30;99.90
36458;DHT22;22480;50.546;12.292;2022-12-24T06:39:14;7.30;99.90
36458;DHT22;22480;50.546;12.292;2022-12-24T06:41:39;7.30;99.90
36458;DHT22;22480;50.546;12.292;2022-12-24T06:44:05;7.40;99.90
36458;DHT22;22480;50.546;12.292;2022-12-24T06:46:31;7.50;99.90
36458;DHT22;22480;50.546;12.292;2022-12-24T06:48:56;7.50;99.90
36458;DHT22;22480;50.546;12.292;2022-12-24T06:51:22;7.40;99.90
36458;DHT22;22480;50.546;12.292;2022-12-24T06:53:49;7.30;99.90
36458;DHT22;22480;50.546;12.292;2022-12-24T06:56:18;7.30;99.90
36458;DHT22;22480;50.546;12.292;2022-12-24T06:58:44;7.20;99.90
36458;DHT22;22480;50.546;12.292;2022-12-24T07:01:15;7.20;99.90
36458;DHT22;22480;50.546;12.292;2022-12-24T07:03:41;7.20;99.90
36458;DHT22;22480;50.546;12.292;2022-12-24T07:06:10;7.10;99.90
36458;DHT22;22480;50.546;12.292;2022-12-24T07:08:39;7.00;99.90
36458;DHT22;22480;50.546;12.292;2022-12-24T07:11:05;7.00;99.90
36458;DHT22;22480;50.546;12.292;2022-12-24T07:13:30;6.90;99.90
36458;DHT22;22480;50.546;12.292;2022-12-24T07:15:59;6.80;99.90
36458;DHT22;22480;50.546;12.292;2022-12-24T07:18:26;6.70;99.90
36458;DHT22;22480;50.546;12.292;2022-12-24T07:20:51;6.70;99.90
36458;DHT22;22480;50.546;12.292;2022-12-24T07:23:17;6.60;99.90
36458;DHT22;22480;50.546;12.292;2022-12-24T07:25:43;6.50;99.90
36458;DHT22;22480;50.546;12.292;2022-12-24T07:28:08;6.60;99.90
36458;DHT22;22480;50.546;12.292;2022-12-24T07:30:34;6.50;99.90
36458;DHT22;22480;50.546;12.292;2022-12-24T07:33:00;6.50;99.90
36458;DHT22;22480;50.546;12.292;2022-12-24T07:35:26;6.50;99.90
36458;DHT22;22480;50.546;12.292;2022-12-24T07:37:52;6.50;99.90
36458;DHT22;22480;50.546;12.292;2022-12-24T07:40:17;6.60;99.90
36458;DHT22;22480;50.546;12.292;2022-12-24T07:42:43;6.70;99.90
36458;DHT22;22480;50.546;12.292;2022-12-24T07:45:09;6.70;99.90
36458;DHT22;22480;50.546;12.292;2022-12-24T07:47:35;6.90;99.90
36458;DHT22;22480;50.546;12.292;2022-12-24T07:50:02;7.00;99.90
36458;DHT22;22480;50.546;12.292;2022-12-24T07:52:28;7.20;99.90
36458;DHT22;22480;50.546;12.292;2022-12-24T07:54:53;7.30;99.90
36458;DHT22;22480;50.546;12.292;2022-12-24T07:57:19;7.40;99.90
36458;DHT22;22480;50.546;12.292;2022-12-24T07:59:44;7.50;99.90
36458;DHT22;22480;50.546;12.292;2022-12-24T08:02:10;7.50;99.90
36458;DHT22;22480;50.546;12.292;2022-12-24T08:04:36;7.60;99.90
36458;DHT22;22480;50.546;12.292;2022-12-24T08:07:03;7.60;99.90
36458;DHT22;22480;50.546;12.292;2022-12-24T08:09:33;7.60;99.90
36458;DHT22;22480;50.546;12.292;2022-12-24T08:11:59;7.70;99.90
36458;DHT22;22480;50.546;12.292;2022-12-24T08:14:24;7.70;99.90
36458;DHT22;22480;50.546;12.292;2022-12-24T08:16:50;7.70;99.90
36458;DHT22;22480;50.546;12.292;2022-12-24T08:19:16;7.70;99.90
36458;DHT22;22480;50.546;12.292;2022-12-24T08:21:41;7.70;99.90
36458;DHT22;22480;50.546;12.292;2022-12-24T08:24:07;7.80;99.90
36458;DHT22;22480;50.546;12.292;2022-12-24T08:26:33;7.70;99.90
36458;DHT22;22480;50.546;12.292;2022-12-24T08:28:59;7.70;99.90
36458;DHT22;22480;50.546;12.292;2022-12-24T08:31:24;7.50;99.90
36458;DHT22;22480;50.546;12.292;2022-12-24T08:33:50;7.50;99.90
36458;DHT22;22480;50.546;12.292;2022-12-24T08:36:15;7.50;99.90
36458;DHT22;22480;50.546;12.292;2022-12-24T08:38:41;7.50;99.90
36458;DHT22;22480;50.546;12.292;2022-12-24T08:41:07;7.40;99.90
36458;DHT22;22480;50.546;12.292;2022-12-24T08:43:32;7.40;99.90
36458;DHT22;22480;50.546;12.292;2022-12-24T08:46:03;7.40;99.90
36458;DHT22;22480;50.546;12.292;2022-12-24T08:48:30;7.40;99.90
36458;DHT22;22480;50.546;12.292;2022-12-24T08:50:56;7.30;99.90
36458;DHT22;22480;50.546;12.292;2022-12-24T08:53:21;7.30;99.90
36458;DHT22;22480;50.546;12.292;2022-12-24T08:55:47;7.30;99.90
36458;DHT22;22480;50.546;12.292;2022-12-24T08:58:13;7.30;99.90
36458;DHT22;22480;50.546;12.292;2022-12-24T09:00:39;7.30;99.90
36458;DHT22;22480;50.546;12.292;2022-12-24T09:03:04;7.30;99.90
36458;DHT22;22480;50.546;12.292;2022-12-24T09:05:30;7.30;99.90
36458;DHT22;22480;50.546;12.292;2022-12-24T09:07:56;7.30;99.90
36458;DHT22;22480;50.546;12.292;2022-12-24T09:10:22;7.40;99.90
36458;DHT22;22480;50.546;12.292;2022-12-24T09:12:48;7.40;99.90
36458;DHT22;22480;50.546;12.292;2022-12-24T09:15:14;7.40;99.90
36458;DHT22;22480;50.546;12.292;2022-12-24T09:17:40;7.40;99.90
36458;DHT22;22480;50.546;12.292;2022-12-24T09:20:07;7.50;99.90
36458;DHT22;22480;50.546;12.292;2022-12-24T09:22:34;7.50;99.90
36458;DHT22;22480;50.546;12.292;2022-12-24T09:25:01;7.50;99.90
36458;DHT22;22480;50.546;12.292;2022-12-24T09:27:29;7.50;99.90
36458;DHT22;22480;50.546;12.292;2022-12-24T09:29:55;7.60;99.90
36458;DHT22;22480;50.546;12.292;2022-12-24T09:32:21;7.60;99.90
36458;DHT22;22480;50.546;12.292;2022-12-24T09:34:47;7.70;99.90
36458;DHT22;22480;50.546;12.292;2022-12-24T09:37:13;7.80;99.90
36458;DHT22;22480;50.546;12.292;2022-12-24T09:39:38;7.80;99.90
36458;DHT22;22480;50.546;12.292;2022-12-24T09:47:54;7.90;99.90
36458;DHT22;22480;50.546;12.292;2022-12-24T09:52:51;7.80;99.90
36458;DHT22;22480;50.546;12.292;2022-12-24T09:55:33;7.80;99.90
36458;DHT22;22480;50.546;12.292;2022-12-24T09:58:03;7.80;99.90
36458;DHT22;22480;50.546;12.292;2022-12-24T10:00:34;7.80;99.90
36458;DHT22;22480;50.546;12.292;2022-12-24T10:03:01;7.90;99.90
36458;DHT22;22480;50.546;12.292;2022-12-24T10:05:42;8.10;99.90
36458;DHT22;22480;50.546;12.292;2022-12-24T10:08:34;8.30;99.90
36458;DHT22;22480;50.546;12.292;2022-12-24T10:11:41;8.50;99.90
36458;DHT22;22480;50.546;12.292;2022-12-24T10:25:23;8.70;99.90
36458;DHT22;22480;50.546;12.292;2022-12-24T10:27:51;8.80;99.90
36458;DHT22;22480;50.546;12.292;2022-12-24T10:30:21;8.90;99.90
36458;DHT22;22480;50.546;12.292;2022-12-24T10:32:49;9.10;99.90
36458;DHT22;22480;50.546;12.292;2022-12-24T10:35:20;8.90;99.90
36458;DHT22;22480;50.546;12.292;2022-12-24T10:37:48;8.70;99.90
36458;DHT22;22480;50.546;12.292;2022-12-24T10:40:42;8.60;99.90
36458;DHT22;22480;50.546;12.292;2022-12-24T10:43:17;8.40;99.90
36458;DHT22;22480;50.546;12.292;2022-12-24T10:45:47;8.40;99.90
36458;DHT22;22480;50.546;12.292;2022-12-24T10:48:30;8.40;99.90
36458;DHT22;22480;50.546;12.292;2022-12-24T10:50:59;8.50;99.90
36458;DHT22;22480;50.546;12.292;2022-12-24T10:56:05;8.80;99.90
36458;DHT22;22480;50.546;12.292;2022-12-24T10:58:32;9.00;99.90
36458;DHT22;22480;50.546;12.292;2022-12-24T11:00:58;9.00;99.90
36458;DHT22;22480;50.546;12.292;2022-12-24T11:08:26;8.80;99.90
36458;DHT22;22480;50.546;12.292;2022-12-24T11:10:57;8.70;99.90
36458;DHT22;22480;50.546;12.292;2022-12-24T11:18:50;8.60;99.90
36458;DHT22;22480;50.546;12.292;2022-12-24T11:21:34;8.60;99.90
36458;DHT22;22480;50.546;12.292;2022-12-24T11:26:29;8.50;99.90
36458;DHT22;22480;50.546;12.292;2022-12-24T11:29:26;8.60;99.90
36458;DHT22;22480;50.546;12.292;2022-12-24T11:32:14;8.60;99.90
36458;DHT22;22480;50.546;12.292;2022-12-24T11:34:42;8.60;99.90
36458;DHT22;22480;50.546;12.292;2022-12-24T11:37:20;8.60;99.90
36458;DHT22;22480;50.546;12.292;2022-12-24T11:39:57;8.60;99.90
36458;DHT22;22480;50.546;12.292;2022-12-24T11:42:32;8.60;99.90
36458;DHT22;22480;50.546;12.292;2022-12-24T11:45:00;8.50;99.90
36458;DHT22;22480;50.546;12.292;2022-12-24T11:47:35;8.40;99.90
36458;DHT22;22480;50.546;12.292;2022-12-24T11:53:19;8.30;99.90
36458;DHT22;22480;50.546;12.292;2022-12-24T11:55:57;8.30;99.90
36458;DHT22;22480;50.546;12.292;2022-12-24T11:58:37;8.50;99.90
36458;DHT22;22480;50.546;12.292;2022-12-24T12:01:19;8.90;99.90
36458;DHT22;22480;50.546;12.292;2022-12-24T12:03:47;9.40;99.90
36458;DHT22;22480;50.546;12.292;2022-12-24T12:06:32;9.70;99.90
36458;DHT22;22480;50.546;12.292;2022-12-24T12:09:04;9.80;99.90
36458;DHT22;22480;50.546;12.292;2022-12-24T12:11:33;9.90;99.90
36458;DHT22;22480;50.546;12.292;2022-12-24T12:14:00;9.80;99.90
36458;DHT22;22480;50.546;12.292;2022-12-24T12:16:34;9.70;99.90
36458;DHT22;22480;50.546;12.292;2022-12-24T12:19:24;9.70;99.90
36458;DHT22;22480;50.546;12.292;2022-12-24T12:21:50;9.60;99.90
36458;DHT22;22480;50.546;12.292;2022-12-24T12:24:29;9.50;99.90
36458;DHT22;22480;50.546;12.292;2022-12-24T12:27:06;9.50;99.90
36458;DHT22;22480;50.546;12.292;2022-12-24T12:29:41;9.40;99.90
36458;DHT22;22480;50.546;12.292;2022-12-24T12:32:20;9.30;99.90
36458;DHT22;22480;50.546;12.292;2022-12-24T12:35:14;9.20;99.90
36458;DHT22;22480;50.546;12.292;2022-12-24T12:37:45;9.20;99.90
36458;DHT22;22480;50.546;12.292;2022-12-24T12:40:14;9.10;99.90
36458;DHT22;22480;50.546;12.292;2022-12-24T12:42:51;9.10;99.90
36458;DHT22;22480;50.546;12.292;2022-12-24T12:45:32;9.00;99.90
36458;DHT22;22480;50.546;12.292;2022-12-24T12:48:33;8.90;99.90
36458;DHT22;22480;50.546;12.292;2022-12-24T12:51:07;8.70;99.90
36458;DHT22;22480;50.546;12.292;2022-12-24T12:53:37;8.40;99.90
36458;DHT22;22480;50.546;12.292;2022-12-24T12:56:20;8.30;99.90
36458;DHT22;22480;50.546;12.292;2022-12-24T13:04:15;8.10;99.90
36458;DHT22;22480;50.546;12.292;2022-12-24T13:10:31;8.10;99.90
36458;DHT22;22480;50.546;12.292;2022-12-24T13:13:43;8.10;99.90
36458;DHT22;22480;50.546;12.292;2022-12-24T13:18:42;8.20;99.90
36458;DHT22;22480;50.546;12.292;2022-12-24T13:21:19;8.20;99.90
36458;DHT22;22480;50.546;12.292;2022-12-24T13:23:46;8.40;99.90
36458;DHT22;22480;50.546;12.292;2022-12-24T13:26:13;8.40;99.90
36458;DHT22;22480;50.546;12.292;2022-12-24T13:28:40;8.60;99.90
36458;DHT22;22480;50.546;12.292;2022-12-24T13:33:45;8.60;99.90
36458;DHT22;22480;50.546;12.292;2022-12-24T13:36:15;8.60;99.90
36458;DHT22;22480;50.546;12.292;2022-12-24T13:39:01;8.70;99.90
36458;DHT22;22480;50.546;12.292;2022-12-24T13:49:36;8.80;99.90
36458;DHT22;22480;50.546;12.292;2022-12-24T13:55:00;8.80;99.90
36458;DHT22;22480;50.546;12.292;2022-12-24T14:02:27;8.80;99.90
36458;DHT22;22480;50.546;12.292;2022-12-24T14:04:59;8.90;99.90
36458;DHT22;22480;50.546;12.292;2022-12-24T14:07:25;8.90;99.90
36458;DHT22;22480;50.546;12.292;2022-12-24T14:09:52;8.80;99.90
36458;DHT22;22480;50.546;12.292;2022-12-24T14:12:44;8.80;99.90
36458;DHT22;22480;50.546;12.292;2022-12-24T14:18:20;8.70;99.90
36458;DHT22;22480;50.546;12.292;2022-12-24T14:20:53;8.70;99.90
36458;DHT22;22480;50.546;12.292;2022-12-24T14:23:32;8.70;99.90
36458;DHT22;22480;50.546;12.292;2022-12-24T14:26:01;8.70;99.90
36458;DHT22;22480;50.546;12.292;2022-12-24T14:28:42;8.70;99.90
36458;DHT22;22480;50.546;12.292;2022-12-24T14:31:17;8.60;99.90
36458;DHT22;22480;50.546;12.292;2022-12-24T14:33:43;8.60;99.90
36458;DHT22;22480;50.546;12.292;2022-12-24T14:36:10;8.50;99.90
36458;DHT22;22480;50.546;12.292;2022-12-24T14:38:40;8.30;99.90
36458;DHT22;22480;50.546;12.292;2022-12-24T14:41:41;8.10;99.90
36458;DHT22;22480;50.546;12.292;2022-12-24T14:44:20;7.90;99.90
36458;DHT22;22480;50.546;12.292;2022-12-24T14:47:17;7.70;99.90
36458;DHT22;22480;50.546;12.292;2022-12-24T14:49:59;7.60;99.90
36458;DHT22;22480;50.546;12.292;2022-12-24T14:52:43;7.60;99.90
36458;DHT22;22480;50.546;12.292;2022-12-24T15:00:42;7.60;99.90
36458;DHT22;22480;50.546;12.292;2022-12-24T15:03:13;7.60;99.90
36458;DHT22;22480;50.546;12.292;2022-12-24T15:05:39;7.70;99.90
36458;DHT22;22480;50.546;12.292;2022-12-24T15:08:32;7.60;99.90
36458;DHT22;22480;50.546;12.292;2022-12-24T15:11:04;7.60;99.90
36458;DHT22;22480;50.546;12.292;2022-12-24T15:13:38;7.60;99.90
36458;DHT22;22480;50.546;12.292;2022-12-24T15:16:08;7.60;99.90
36458;DHT22;22480;50.546;12.292;2022-12-24T15:18:47;7.60;99.90
36458;DHT22;22480;50.546;12.292;2022-12-24T15:21:25;7.60;99.90
36458;DHT22;22480;50.546;12.292;2022-12-24T15:23:53;7.50;99.90
36458;DHT22;22480;50.546;12.292;2022-12-24T15:28:49;7.50;99.90
36458;DHT22;22480;50.546;12.292;2022-12-24T15:31:17;7.50;99.90
36458;DHT22;22480;50.546;12.292;2022-12-24T15:33:45;7.30;99.90
36458;DHT22;22480;50.546;12.292;2022-12-24T15:36:13;7.30;99.90
36458;DHT22;22480;50.546;12.292;2022-12-24T15:38:41;7.20;99.90
36458;DHT22;22480;50.546;12.292;2022-12-24T15:41:19;7.20;99.90
36458;DHT22;22480;50.546;12.292;2022-12-24T15:43:48;7.20;99.90
36458;DHT22;22480;50.546;12.292;2022-12-24T15:46:21;7.20;99.90
36458;DHT22;22480;50.546;12.292;2022-12-24T15:48:49;7.20;99.90
36458;DHT22;22480;50.546;12.292;2022-12-24T15:51:31;7.30;99.90
36458;DHT22;22480;50.546;12.292;2022-12-24T15:54:05;7.20;99.90
36458;DHT22;22480;50.546;12.292;2022-12-24T15:56:38;7.20;99.90
36458;DHT22;22480;50.546;12.292;2022-12-24T16:01:43;7.10;99.90
36458;DHT22;22480;50.546;12.292;2022-12-24T16:04:26;7.10;99.90
36458;DHT22;22480;50.546;12.292;2022-12-24T16:06:53;7.10;99.90
36458;DHT22;22480;50.546;12.292;2022-12-24T16:09:52;7.10;99.90
36458;DHT22;22480;50.546;12.292;2022-12-24T16:12:38;7.10;99.90
36458;DHT22;22480;50.546;12.292;2022-12-24T16:15:04;7.20;99.90
36458;DHT22;22480;50.546;12.292;2022-12-24T16:17:33;7.20;99.90
36458;DHT22;22480;50.546;12.292;2022-12-24T16:20:05;7.20;99.90
36458;DHT22;22480;50.546;12.292;2022-12-24T16:22:32;7.20;99.90
36458;DHT22;22480;50.546;12.292;2022-12-24T16:25:24;7.20;99.90
36458;DHT22;22480;50.546;12.292;2022-12-24T16:27:51;7.20;99.90
36458;DHT22;22480;50.546;12.292;2022-12-24T16:30:18;7.20;99.90
36458;DHT22;22480;50.546;12.292;2022-12-24T16:32:46;7.20;99.90
36458;DHT22;22480;50.546;12.292;2022-12-24T16:35:29;7.20;99.90
36458;DHT22;22480;50.546;12.292;2022-12-24T16:38:01;7.20;99.90
36458;DHT22;22480;50.546;12.292;2022-12-24T16:40:28;7.20;99.90
36458;DHT22;22480;50.546;12.292;2022-12-24T16:42:57;7.30;99.90
36458;DHT22;22480;50.546;12.292;2022-12-24T16:45:43;7.30;99.90
36458;DHT22;22480;50.546;12.292;2022-12-24T16:48:17;7.30;99.90
36458;DHT22;22480;50.546;12.292;2022-12-24T16:50:43;7.20;99.90
36458;DHT22;22480;50.546;12.292;2022-12-24T16:53:16;7.10;99.90
36458;DHT22;22480;50.546;12.292;2022-12-24T16:55:42;7.00;99.90
36458;DHT22;22480;50.546;12.292;2022-12-24T16:58:12;7.00;99.90
36458;DHT22;22480;50.546;12.292;2022-12-24T17:00:38;7.00;99.90
36458;DHT22;22480;50.546;12.292;2022-12-24T17:03:04;7.00;99.90
36458;DHT22;22480;50.546;12.292;2022-12-24T17:05:30;6.90;99.90
36458;DHT22;22480;50.546;12.292;2022-12-24T17:07:59;6.90;99.90
36458;DHT22;22480;50.546;12.292;2022-12-24T17:10:25;6.90;99.90
36458;DHT22;22480;50.546;12.292;2022-12-24T17:12:50;6.80;99.90
36458;DHT22;22480;50.546;12.292;2022-12-24T17:15:16;6.80;99.90
36458;DHT22;22480;50.546;12.292;2022-12-24T17:17:42;6.70;99.90
36458;DHT22;22480;50.546;12.292;2022-12-24T17:20:08;6.70;99.90
36458;DHT22;22480;50.546;12.292;2022-12-24T17:22:35;6.60;99.90
36458;DHT22;22480;50.546;12.292;2022-12-24T17:25:00;6.60;99.90
36458;DHT22;22480;50.546;12.292;2022-12-24T17:27:26;6.60;99.90
36458;DHT22;22480;50.546;12.292;2022-12-24T17:29:52;6.60;99.90